Time;durP1;ratioP1;P1;durP2;ratioP2;P2;SDS_P1;SDS_P2;PMS_P1;PMS_P2;Temp;Humidity;BMP_temperature;BMP_pressure;BME280_temperature;BME280_humidity;BME280_pressure;Samples;Min_cycle;Max_cycle;Signal;HPM_P1;HPM_P2
2022/06/06 00:03:52;;;;;;;29.83;15.82;;;;;;;13.74;100.00;101374.09;10485277;28;20059;-72
2022/06/06 00:08:53;;;;;;;21.92;15.00;;;;;;;13.72;100.00;101374.31;10483882;28;20079;-72
2022/06/06 00:13:53;;;;;;;27.25;15.85;;;;;;;13.78;100.00;101382.66;10501216;28;20183;-72
2022/06/06 00:18:53;;;;;;;37.90;17.58;;;;;;;13.79;100.00;101373.47;10483533;28;20048;-72
2022/06/06 00:23:59;;;;;;;34.97;17.58;;;;;;;13.75;100.00;101370.31;10502499;28;20438;-73
2022/06/06 00:28:59;;;;;;;27.65;20.02;;;;;;;13.79;100.00;101352.53;10484996;28;20036;-73
2022/06/06 00:39:18;;;;;;;33.15;18.33;;;;;;;13.75;100.00;101344.97;10498973;28;20470;-72
2022/06/06 00:44:20;;;;;;;35.05;18.42;;;;;;;13.72;100.00;101341.66;10482552;28;20037;-73
2022/06/06 00:49:40;;;;;;;35.47;22.00;;;;;;;13.75;100.00;101337.63;10500110;28;20035;-72
2022/06/06 00:54:40;;;;;;;31.85;19.65;;;;;;;13.78;100.00;101339.13;10500547;28;20071;-72
2022/06/06 00:59:41;;;;;;;36.88;20.52;;;;;;;13.83;100.00;101342.06;10465590;28;20031;-72
2022/06/06 01:04:41;;;;;;;57.83;23.98;;;;;;;13.87;100.00;101333.25;10498436;28;20123;-73
2022/06/06 01:09:42;;;;;;;35.90;20.98;;;;;;;13.86;100.00;101337.03;10499970;28;20035;-72
2022/06/06 01:14:45;;;;;;;33.63;19.45;;;;;;;13.89;100.00;101336.63;10503578;28;20094;-72
2022/06/06 01:19:54;;;;;;;27.83;17.10;;;;;;;13.93;100.00;101331.59;10497805;28;20047;-75
2022/06/06 01:25:23;;;;;;;23.20;17.33;;;;;;;13.89;100.00;101319.47;10479311;28;20029;-74
2022/06/06 01:30:45;;;;;;;36.70;18.67;;;;;;;13.94;100.00;101314.19;10481508;28;20044;-73
2022/06/06 01:35:46;;;;;;;24.77;16.10;;;;;;;13.90;100.00;101318.41;10481520;28;20115;-72
2022/06/06 01:40:56;;;;;;;28.15;17.05;;;;;;;13.86;100.00;101315.25;10498739;28;20055;-73
2022/06/06 01:46:00;;;;;;;30.45;16.75;;;;;;;13.84;100.00;101311.91;10498465;28;20434;-73
2022/06/06 01:51:12;;;;;;;25.63;17.00;;;;;;;13.85;100.00;101321.75;10479935;28;20052;-73
2022/06/06 01:56:21;;;;;;;24.90;16.27;;;;;;;13.93;100.00;101315.25;10498717;28;20091;-73
2022/06/06 02:01:22;;;;;;;30.38;15.60;;;;;;;13.94;100.00;101312.34;10463716;28;20040;-79
2022/06/06 02:06:22;;;;;;;23.15;15.50;;;;;;;13.96;100.00;101299.34;10498279;28;20055;-79
2022/06/06 02:11:23;;;;;;;38.20;17.60;;;;;;;13.98;100.00;101303.75;10480419;28;20047;-79
2022/06/06 02:16:24;;;;;;;37.72;18.25;;;;;;;13.96;100.00;101309.41;10497810;28;20049;-79
2022/06/06 02:21:24;;;;;;;30.73;19.20;;;;;;;14.02;100.00;101307.72;10479862;28;20032;-79
2022/06/06 02:26:25;;;;;;;28.05;17.33;;;;;;;13.95;100.00;101305.84;10479643;28;20040;-79
2022/06/06 02:31:25;;;;;;;34.97;20.63;;;;;;;13.96;100.00;101298.50;10497497;28;20064;-79
2022/06/06 02:36:25;;;;;;;32.13;19.35;;;;;;;14.05;100.00;101294.53;10496880;28;20056;-79
2022/06/06 02:41:26;;;;;;;32.47;21.17;;;;;;;14.04;100.00;101287.41;10497941;28;20033;-79
2022/06/06 02:46:27;;;;;;;37.92;20.83;;;;;;;13.90;100.00;101283.00;10497106;28;20175;-79
2022/06/06 02:51:27;;;;;;;37.33;19.35;;;;;;;13.87;100.00;101291.59;10496966;28;20103;-79
2022/06/06 02:56:28;;;;;;;31.25;19.00;;;;;;;13.87;100.00;101288.88;10496920;28;20043;-80
2022/06/06 03:01:28;;;;;;;44.85;22.10;;;;;;;13.89;100.00;101287.63;10502889;28;20109;-79
2022/06/06 03:06:57;;;;;;;32.03;20.20;;;;;;;13.96;100.00;101298.50;10504116;28;20077;-80
2022/06/06 03:12:28;;;;;;;43.17;23.27;;;;;;;14.04;100.00;101298.31;10502971;28;20028;-79
2022/06/06 03:23:37;;;;;;;35.35;23.45;;;;;;;14.09;100.00;101289.47;10503122;28;20157;-79
2022/06/06 03:29:05;;;;;;;40.60;22.25;;;;;;;14.05;100.00;101280.06;10502336;28;20091;-79
2022/06/06 03:34:27;;;;;;;43.45;23.13;;;;;;;14.09;100.00;101286.75;10504022;28;20114;-79
2022/06/06 03:40:02;;;;;;;47.83;23.73;;;;;;;14.16;100.00;101282.13;10503348;28;20029;-79
2022/06/06 03:45:02;;;;;;;45.05;21.90;;;;;;;14.16;100.00;101282.97;10502881;28;20032;-79
2022/06/06 03:50:20;;;;;;;28.67;16.42;;;;;;;14.11;100.00;101285.50;10502561;28;20384;-80
2022/06/06 03:55:32;;;;;;;22.45;14.38;;;;;;;14.10;100.00;101286.56;10501259;28;20412;-79
2022/06/06 04:00:33;;;;;;;27.73;13.85;;;;;;;14.05;100.00;101293.69;10485057;28;20116;-79
2022/06/06 04:05:38;;;;;;;17.13;10.65;;;;;;;14.04;100.00;101295.59;10503966;28;20135;-80
2022/06/06 04:10:57;;;;;;;17.33;11.48;;;;;;;13.95;100.00;101294.94;10483139;28;20082;-79
2022/06/06 04:16:17;;;;;;;18.83;10.50;;;;;;;14.03;100.00;101287.59;10500978;28;20064;-80
2022/06/06 04:21:32;;;;;;;33.97;11.55;;;;;;;13.89;100.00;101293.06;10483679;28;20028;-80
2022/06/06 04:27:05;;;;;;;15.68;9.50;;;;;;;13.78;100.00;101296.41;10484601;28;20493;-79
2022/06/06 04:32:17;;;;;;;10.50;7.13;;;;;;;13.82;100.00;101296.84;10494578;28;20044;-79
2022/06/06 04:37:21;;;;;;;7.95;5.80;;;;;;;14.01;100.00;101301.44;10499141;28;20086;-79
2022/06/06 04:42:43;;;;;;;10.15;5.95;;;;;;;14.62;100.00;101305.78;10484239;28;20036;-79
2022/06/06 04:47:43;;;;;;;15.70;5.65;;;;;;;14.40;100.00;101307.88;10501332;28;20025;-79
2022/06/06 04:52:46;;;;;;;5.82;4.57;;;;;;;14.31;100.00;101300.97;10499917;28;20125;-79
2022/06/06 04:57:50;;;;;;;7.30;3.92;;;;;;;14.33;100.00;101309.78;10498570;28;20452;-79
2022/06/06 05:02:50;;;;;;;13.55;4.28;;;;;;;14.22;100.00;101302.25;10498463;28;20039;-79
2022/06/06 05:08:16;;;;;;;4.70;4.25;;;;;;;14.38;100.00;101299.91;10500843;28;20060;-78
2022/06/06 05:13:33;;;;;;;5.82;3.58;;;;;;;15.58;100.00;101302.13;10500471;28;20115;-79
2022/06/06 05:18:59;;;;;;;7.75;4.30;;;;;;;15.68;100.00;101296.22;10497833;28;20036;-79
2022/06/06 05:24:22;;;;;;;6.27;2.97;;;;;;;15.22;100.00;101289.97;10495495;28;20394;-78
2022/06/06 05:29:44;;;;;;;12.30;4.88;;;;;;;15.03;100.00;101288.19;10481857;28;20025;-79
2022/06/06 05:35:30;;;;;;;5.18;3.13;;;;;;;15.31;100.00;101285.06;10501377;28;20158;-79
2022/06/06 05:41:01;;;;;;;12.20;2.60;;;;;;;15.21;100.00;101282.00;10493381;28;20533;-79
2022/06/06 05:46:19;;;;;;;4.30;3.90;;;;;;;15.03;100.00;101288.19;10460841;28;20050;-77
2022/06/06 05:51:37;;;;;;;10.45;3.72;;;;;;;16.13;100.00;101283.22;10498249;28;20028;-80
2022/06/06 05:56:54;;;;;;;15.80;4.00;;;;;;;16.20;100.00;101281.25;10498744;28;20024;-81
2022/06/06 06:02:32;;;;;;;10.18;4.35;;;;;;;15.98;100.00;101269.88;10497371;28;20029;-79
2022/06/06 06:07:43;;;;;;;6.00;3.30;;;;;;;16.16;100.00;101292.84;10499511;28;20044;-79
2022/06/06 06:13:06;;;;;;;3.50;2.65;;;;;;;16.96;100.00;101295.56;10497701;28;20554;-79
2022/06/06 06:18:20;;;;;;;9.13;2.42;;;;;;;17.05;100.00;101296.09;10499118;28;20025;-79
2022/06/06 06:23:26;;;;;;;5.47;3.00;;;;;;;18.17;100.00;101303.66;10480261;28;20466;-79
2022/06/06 06:28:27;;;;;;;8.52;2.63;;;;;;;19.02;100.00;101300.31;10496477;28;20090;-80
2022/06/06 06:33:52;;;;;;;5.05;2.65;;;;;;;17.74;100.00;101300.13;10463646;28;20074;-80
2022/06/06 06:39:08;;;;;;;2.20;1.40;;;;;;;19.24;100.00;101303.19;10505349;28;20458;-80
2022/06/06 06:44:17;;;;;;;12.20;2.30;;;;;;;19.62;100.00;101288.81;10505328;28;20029;-80
2022/06/06 06:49:33;;;;;;;2.45;2.28;;;;;;;20.36;100.00;101299.63;10503795;28;20028;-79
2022/06/06 06:55:06;;;;;;;6.07;2.05;;;;;;;20.31;100.00;101304.22;10506089;28;20064;-80
2022/06/06 07:00:14;;;;;;;3.92;1.85;;;;;;;19.79;100.00;101304.50;10487967;28;20040;-80
2022/06/06 07:11:24;;;;;;;5.22;1.13;;;;;;;20.09;100.00;101305.00;10504755;28;20033;-80
2022/06/06 07:16:28;;;;;;;6.50;2.15;;;;;;;20.52;100.00;101321.91;10505993;28;20381;-80
2022/06/06 07:21:30;;;;;;;5.18;1.90;;;;;;;21.03;100.00;101304.13;10504062;28;20036;-79
2022/06/06 07:26:37;;;;;;;2.47;2.25;;;;;;;19.64;100.00;101314.13;10486575;28;20403;-80
2022/06/06 07:32:02;;;;;;;5.13;2.03;;;;;;;18.96;100.00;101315.03;10502434;28;20363;-80
2022/06/06 07:37:41;;;;;;;3.40;2.65;;;;;;;17.47;100.00;101326.25;10510508;28;20033;-80
2022/06/06 07:42:44;;;;;;;1.80;1.70;;;;;;;18.06;100.00;101327.22;10504781;28;20037;-79
2022/06/06 07:47:53;;;;;;;4.72;3.10;;;;;;;19.42;100.00;101324.16;10502724;28;20051;-80
2022/06/06 07:53:25;;;;;;;6.07;2.63;;;;;;;18.86;100.00;101328.50;10502682;28;20025;-79
2022/06/06 07:58:39;;;;;;;2.03;1.73;;;;;;;18.36;100.00;101325.22;10501812;28;20037;-80
2022/06/06 08:04:06;;;;;;;4.05;2.42;;;;;;;18.89;100.00;101328.03;10509865;28;20118;-81
2022/06/06 08:09:29;;;;;;;4.35;1.45;;;;;;;18.47;100.00;101325.44;10497210;28;20393;-75
2022/06/06 08:14:53;;;;;;;2.40;1.85;;;;;;;19.95;100.00;101315.50;10501539;28;20037;-80
2022/06/06 08:19:56;;;;;;;5.03;2.45;;;;;;;21.47;100.00;101308.72;10502171;28;20028;-80
2022/06/06 08:24:58;;;;;;;2.17;1.88;;;;;;;22.40;100.00;101305.63;10503416;28;20033;-80
2022/06/06 08:29:58;;;;;;;3.83;2.13;;;;;;;23.03;100.00;101308.47;10500260;28;20035;-81
2022/06/06 08:34:59;;;;;;;2.08;1.80;;;;;;;22.38;100.00;101313.38;10483299;28;20063;-81
2022/06/06 08:40:17;;;;;;;6.10;2.00;;;;;;;21.46;98.39;101307.06;10483533;28;20040;-81
2022/06/06 08:45:26;;;;;;;4.30;2.47;;;;;;;19.64;97.33;101296.84;10501215;28;20115;-81
2022/06/06 08:51:01;;;;;;;2.80;1.80;;;;;;;17.94;100.00;101299.00;10499727;28;20143;-79
2022/06/06 08:56:04;;;;;;;15.73;3.25;;;;;;;20.13;100.00;101278.69;10499263;28;20044;-79
2022/06/06 09:01:26;;;;;;;2.38;2.00;;;;;;;22.10;100.00;101295.22;10500225;28;20386;-80
2022/06/06 09:06:35;;;;;;;15.25;2.30;;;;;;;21.89;94.56;101295.06;10503309;28;20474;-80
2022/06/06 09:12:09;;;;;;;2.95;1.52;;;;;;;19.92;100.00;101296.75;10500356;28;20044;-78
2022/06/06 09:17:43;;;;;;;6.13;1.75;;;;;;;21.36;99.58;101294.84;10499335;28;20048;-79
2022/06/06 09:22:52;;;;;;;4.30;2.22;;;;;;;22.12;100.00;101287.53;10491845;28;20422;-80
2022/06/06 09:28:14;;;;;;;6.10;2.75;;;;;;;19.83;98.73;101284.50;10498058;28;20029;-79
2022/06/06 09:33:38;;;;;;;8.68;2.63;;;;;;;19.90;100.00;101292.59;10500524;28;20097;-79
2022/06/06 09:38:53;;;;;;;3.10;2.20;;;;;;;21.29;92.34;101276.84;10484129;28;20043;-80
2022/06/06 09:44:13;;;;;;;4.07;2.65;;;;;;;20.87;97.01;101291.25;10499092;28;20044;-81
2022/06/06 09:49:16;;;;;;;11.05;2.22;;;;;;;21.45;91.81;101272.34;10498873;28;20032;-80
2022/06/06 10:00:11;;;;;;;4.88;2.47;;;;;;;20.98;92.04;101270.19;10497515;28;20040;-80
2022/06/06 10:05:34;;;;;;;10.10;2.90;;;;;;;20.27;94.15;101268.16;10505345;28;20131;-79
2022/06/06 10:11:07;;;;;;;2.80;2.03;;;;;;;20.03;98.94;101266.69;10504133;28;20048;-80
2022/06/06 10:16:29;;;;;;;5.28;2.25;;;;;;;19.60;96.43;101259.91;10488848;28;20036;-78
2022/06/06 10:21:44;;;;;;;3.22;2.38;;;;;;;18.94;99.62;101270.50;10505782;28;20032;-79
2022/06/06 10:26:54;;;;;;;3.25;1.83;;;;;;;18.34;100.00;101286.22;10504491;28;20032;-80
2022/06/06 10:32:10;;;;;;;3.28;2.75;;;;;;;17.81;100.00;101278.97;10488721;28;20024;-78
2022/06/06 10:37:15;;;;;;;;;;;;;;;17.19;100.00;101273.75;10504980;28;20119;-79
2022/06/06 10:42:39;;;;;;;5.13;2.58;;;;;;;17.20;100.00;101266.41;10503725;28;19908;-78
2022/06/06 10:48:06;;;;;;;8.70;2.97;;;;;;;17.09;100.00;101273.47;10505098;28;20487;-78
2022/06/06 10:53:53;;;;;;;4.75;2.85;;;;;;;17.25;100.00;101261.06;10503498;28;20378;-81
2022/06/06 10:58:59;;;;;;;3.35;2.25;;;;;;;16.41;100.00;101281.88;10471703;28;20496;-78
2022/06/06 11:04:05;;;;;;;10.35;3.05;;;;;;;15.93;100.00;101283.41;10507061;28;20111;-79
2022/06/06 11:09:37;;;;;;;6.35;2.45;;;;;;;16.02;100.00;101292.97;10504618;28;20071;-78
2022/06/06 11:14:42;;;;;;;2.70;2.50;;;;;;;16.32;100.00;101269.56;10503181;28;20044;-78
2022/06/06 11:19:54;;;;;;;7.60;2.90;;;;;;;15.99;100.00;101255.19;10484722;28;20112;-81
2022/06/06 11:25:11;;;;;;;7.75;3.17;;;;;;;15.51;100.00;101255.78;10503512;28;20498;-82
2022/06/06 11:30:27;;;;;;;3.08;2.78;;;;;;;16.12;100.00;101258.84;10503135;28;20024;-82
2022/06/06 11:35:35;;;;;;;10.38;4.82;;;;;;;15.88;100.00;101268.72;10505061;28;20039;-79
2022/06/06 11:41:01;;;;;;;4.53;2.60;;;;;;;16.40;100.00;101270.13;10491455;28;20029;-80
2022/06/06 11:46:29;;;;;;;4.70;2.97;;;;;;;16.20;100.00;101266.75;10502487;28;20163;-81
2022/06/06 11:51:37;;;;;;;4.85;2.85;;;;;;;15.62;100.00;101269.75;10502042;28;20032;-79
2022/06/06 11:56:59;;;;;;;4.38;2.13;;;;;;;15.34;100.00;101260.09;10501110;28;20032;-80
2022/06/06 12:02:36;;;;;;;10.93;3.50;;;;;;;14.97;100.00;101262.63;10502289;28;20024;-78
2022/06/06 12:08:04;;;;;;;7.10;3.13;;;;;;;15.27;100.00;101260.13;10502375;28;20048;-83
2022/06/06 12:13:47;;;;;;;5.13;3.13;;;;;;;14.88;100.00;101274.84;10501557;28;20082;-77
2022/06/06 12:19:14;;;;;;;1.60;1.50;;;;;;;14.67;100.00;101283.31;10484158;28;20358;-77
2022/06/06 12:24:30;;;;;;;3.00;1.67;;;;;;;14.55;100.00;101291.31;10483113;28;20032;-79
2022/06/06 12:29:40;;;;;;;1.05;1.05;;;;;;;14.43;100.00;101293.84;10500386;28;20052;-74
2022/06/06 12:34:44;;;;;;;1.00;1.00;;;;;;;14.43;100.00;101299.28;10484018;28;20028;-79
2022/06/06 12:39:51;;;;;;;1.13;1.05;;;;;;;14.29;100.00;101303.91;10500395;28;20351;-78
2022/06/06 12:45:07;;;;;;;2.58;1.35;;;;;;;14.33;100.00;101293.44;10483455;28;20032;-78
2022/06/06 12:50:24;;;;;;;2.20;1.40;;;;;;;14.36;100.00;101290.28;10500408;28;20450;-78
2022/06/06 12:55:44;;;;;;;3.33;1.50;;;;;;;14.57;100.00;101300.94;10500766;28;20037;-77
2022/06/06 13:06:14;;;;;;;0.93;0.93;;;;;;;14.34;100.00;101303.28;10493891;28;20052;-76
2022/06/06 13:11:36;;;;;;;2.42;1.45;;;;;;;14.43;100.00;101293.84;10499544;28;20036;-78
2022/06/06 13:16:42;;;;;;;9.45;1.98;;;;;;;14.52;100.00;101297.22;10482713;28;20090;-78
2022/06/06 13:21:46;;;;;;;2.03;1.90;;;;;;;14.51;100.00;101300.97;10498830;28;20082;-78
2022/06/06 13:26:53;;;;;;;2.20;1.77;;;;;;;14.22;100.00;101308.53;10499002;28;20028;-80
2022/06/06 13:32:23;;;;;;;4.18;2.50;;;;;;;14.07;100.00;101311.50;10480888;28;20028;-77
2022/06/06 13:38:03;;;;;;;2.42;2.22;;;;;;;13.92;100.00;101316.31;10499412;28;20071;-75
2022/06/06 13:43:15;;;;;;;5.03;2.22;;;;;;;13.69;100.00;101320.28;10496505;28;20044;-78
2022/06/06 13:48:18;;;;;;;2.63;2.05;;;;;;;13.61;100.00;101322.34;10497157;28;20115;-77
2022/06/06 13:53:24;;;;;;;3.30;3.03;;;;;;;13.65;100.00;101324.44;10497261;28;20126;-76
2022/06/06 13:58:46;;;;;;;11.40;4.45;;;;;;;13.49;100.00;101330.28;10497847;28;20032;-79
2022/06/06 14:04:25;;;;;;;3.90;3.50;;;;;;;13.37;100.00;101338.22;10499584;28;20112;-78
2022/06/06 14:09:37;;;;;;;14.77;3.97;;;;;;;13.38;100.00;101334.44;10478769;28;20041;-79
2022/06/06 14:14:39;;;;;;;6.82;2.80;;;;;;;13.36;100.00;101341.13;10498184;28;20035;-79
2022/06/06 14:19:48;;;;;;;5.53;3.00;;;;;;;13.53;100.00;101342.44;10480159;28;20033;-76
2022/06/06 14:24:53;;;;;;;4.80;3.55;;;;;;;13.73;100.00;101354.19;10498023;28;20087;-80
2022/06/06 14:30:03;;;;;;;5.65;3.08;;;;;;;13.92;100.00;101351.72;10495564;28;20036;-77
2022/06/06 14:35:28;;;;;;;4.68;2.92;;;;;;;14.04;100.00;101366.38;10480318;28;20032;-77
2022/06/06 14:40:40;;;;;;;2.20;1.98;;;;;;;13.87;100.00;101365.94;10478871;28;20040;-76
2022/06/06 14:45:41;;;;;;;2.70;2.50;;;;;;;13.86;100.00;101369.72;10463809;28;20040;-76
2022/06/06 14:50:56;;;;;;;3.10;2.30;;;;;;;13.66;100.00;101380.56;10496035;28;20458;-76
2022/06/06 14:55:59;;;;;;;6.47;2.00;;;;;;;13.72;100.00;101371.59;10499422;28;20024;-77
2022/06/06 15:01:15;;;;;;;4.82;2.47;;;;;;;13.94;100.00;101376.81;10469931;28;20032;-77
2022/06/06 15:06:16;;;;;;;3.05;2.78;;;;;;;14.17;100.00;101382.72;10505752;28;20049;-77
2022/06/06 15:11:19;;;;;;;8.57;2.25;;;;;;;14.21;100.00;101377.69;10503976;28;20029;-76
2022/06/06 15:16:19;;;;;;;3.20;2.15;;;;;;;14.22;100.00;101383.97;10501732;28;20036;-76
2022/06/06 15:21:20;;;;;;;1.67;1.55;;;;;;;14.12;100.00;101392.56;10502325;28;20462;-76
2022/06/06 15:26:26;;;;;;;5.65;3.97;;;;;;;13.84;100.00;101398.19;10503084;28;20503;-76
2022/06/06 15:31:55;;;;;;;2.20;2.10;;;;;;;13.92;100.00;101407.00;10504485;28;20028;-76
2022/06/06 15:37:42;;;;;;;4.78;3.58;;;;;;;13.84;100.00;101415.34;10499835;28;20381;-77
2022/06/06 15:42:45;;;;;;;5.85;3.45;;;;;;;13.63;100.00;101421.81;10493286;28;20444;-77
2022/06/06 15:48:04;;;;;;;7.00;3.83;;;;;;;13.56;100.00;101423.69;10497039;28;20043;-77
2022/06/06 15:53:35;;;;;;;11.20;4.85;;;;;;;13.57;100.00;101427.22;10522633;28;20063;-77
2022/06/06 15:59:15;;;;;;;6.53;4.72;;;;;;;13.45;100.00;101429.69;10509233;28;20034;-78
2022/06/06 16:04:34;;;;;;;6.38;4.07;;;;;;;13.25;100.00;101433.16;10503151;28;20110;-77
2022/06/06 16:09:53;;;;;;;7.78;4.30;;;;;;;13.38;100.00;101434.28;10483549;28;20036;-77
2022/06/06 16:15:23;;;;;;;6.05;4.05;;;;;;;13.51;100.00;101426.16;10499953;28;20081;-77
2022/06/06 16:20:44;;;;;;;29.25;5.25;;;;;;;13.60;100.00;101429.53;10497080;28;20063;-77
2022/06/06 16:25:52;;;;;;;7.80;3.88;;;;;;;13.62;100.00;101425.53;10485590;28;20043;-76
2022/06/06 16:30:54;;;;;;;10.25;3.35;;;;;;;13.56;100.00;101422.81;10501971;28;20469;-77
2022/06/06 16:35:57;;;;;;;20.40;5.10;;;;;;;13.63;100.00;101423.69;10499489;28;20466;-77
2022/06/06 16:47:54;;;;;;;5.38;3.80;;;;;;;13.63;100.00;101420.97;10500480;28;20100;-77
2022/06/06 16:52:18;;;;;;;5.47;3.05;;;;;;;13.74;100.00;101414.91;10499381;28;20067;-77
2022/06/06 16:57:40;;;;;;;4.07;3.05;;;;;;;13.62;100.00;101422.81;10499275;28;20056;-77
2022/06/06 17:02:42;;;;;;;4.78;4.35;;;;;;;13.66;100.00;101420.56;10500068;28;20041;-77
2022/06/06 17:07:46;;;;;;;9.90;3.88;;;;;;;13.58;100.00;101427.00;10499944;28;20485;-77
2022/06/06 17:12:51;;;;;;;7.13;4.35;;;;;;;13.53;100.00;101432.25;10483067;28;20036;-77
2022/06/06 17:17:58;;;;;;;6.03;4.53;;;;;;;13.51;100.00;101437.03;10480772;28;20041;-77
2022/06/06 17:23:05;;;;;;;5.60;4.35;;;;;;;13.48;100.00;101442.88;10498784;28;20036;-77
2022/06/06 17:28:21;;;;;;;8.20;4.45;;;;;;;13.42;100.00;101432.81;10499645;28;20028;-77
2022/06/06 17:33:26;;;;;;;18.70;5.20;;;;;;;13.45;100.00;101432.41;10498248;28;20039;-77
2022/06/06 17:38:27;;;;;;;8.40;3.88;;;;;;;13.52;100.00;101435.97;10483708;28;20029;-78
2022/06/06 17:43:52;;;;;;;10.45;4.45;;;;;;;13.65;100.00;101436.03;10499042;28;20032;-78
2022/06/06 17:49:18;;;;;;;10.40;3.28;;;;;;;13.68;100.00;101438.34;10498896;28;20033;-78
2022/06/06 17:54:27;;;;;;;9.65;3.83;;;;;;;13.71;100.00;101431.66;10497544;28;20438;-78
2022/06/06 17:59:34;;;;;;;2.97;2.67;;;;;;;13.70;100.00;101427.25;10498239;28;20059;-78
2022/06/06 18:04:53;;;;;;;;;;;;;;;13.80;100.00;101437.75;10497086;28;20544;-78
2022/06/06 18:10:11;;;;;;;3.65;2.88;;;;;;;13.86;100.00;101447.81;10500823;28;19917;-78
2022/06/06 18:15:34;;;;;;;2.72;2.53;;;;;;;13.89;100.00;101452.84;10503835;28;20041;-78
2022/06/06 18:20:51;;;;;;;4.43;2.55;;;;;;;13.71;100.00;101437.94;10503455;28;20485;-77
2022/06/06 18:25:54;;;;;;;2.22;2.03;;;;;;;13.66;100.00;101428.72;10498973;28;20032;-77
2022/06/06 18:30:54;;;;;;;2.72;2.50;;;;;;;13.52;100.00;101433.25;10500839;28;20155;-78
2022/06/06 18:35:56;;;;;;;7.03;2.53;;;;;;;13.52;100.00;101443.31;10506072;28;20082;-78
2022/06/06 18:41:03;;;;;;;4.57;2.42;;;;;;;13.56;100.00;101440.00;10488135;28;20099;-78
2022/06/06 18:46:11;;;;;;;5.88;2.63;;;;;;;13.56;100.00;101437.28;10488954;28;20481;-78
2022/06/06 18:51:13;;;;;;;4.88;2.15;;;;;;;13.60;100.00;101445.88;10503679;28;20028;-77
2022/06/06 18:56:30;;;;;;;3.53;2.88;;;;;;;13.59;100.00;101430.56;10488477;28;20020;-77
2022/06/06 19:01:41;;;;;;;3.00;2.72;;;;;;;13.58;100.00;101420.72;10487734;28;20038;-78
2022/06/06 19:07:01;;;;;;;5.43;2.08;;;;;;;13.60;100.00;101430.38;10506193;28;20087;-77
2022/06/06 19:12:15;;;;;;;2.42;2.30;;;;;;;13.54;100.00;101423.03;10509795;28;20112;-77
2022/06/06 19:17:15;;;;;;;8.18;2.75;;;;;;;13.60;100.00;101435.81;10501786;28;20087;-77
2022/06/06 19:22:18;;;;;;;2.67;2.00;;;;;;;13.62;100.00;101428.25;10503904;28;20145;-77
2022/06/06 19:27:29;;;;;;;4.00;3.03;;;;;;;13.65;100.00;101427.03;10503401;28;20036;-77
2022/06/06 19:32:35;;;;;;;4.60;2.88;;;;;;;13.61;100.00;101425.75;10504632;28;20039;-77
2022/06/06 19:37:37;;;;;;;10.57;2.72;;;;;;;13.62;100.00;101427.44;10503752;28;20112;-78
2022/06/06 19:42:46;;;;;;;2.47;2.20;;;;;;;13.59;100.00;101427.84;10503618;28;20059;-77
2022/06/06 19:47:51;;;;;;;2.60;2.08;;;;;;;13.39;100.00;101425.88;10486947;28;20070;-77
2022/06/06 19:52:52;;;;;;;4.90;3.30;;;;;;;13.36;100.00;101428.19;10501932;28;20524;-77
2022/06/06 19:57:52;;;;;;;6.68;4.10;;;;;;;13.34;100.00;101431.13;10502359;28;20036;-77
2022/06/06 20:02:57;;;;;;;4.22;3.22;;;;;;;13.22;100.00;101436.25;10485544;28;20029;-76
2022/06/06 20:08:08;;;;;;;3.47;3.17;;;;;;;13.18;100.00;101426.84;10468169;28;20139;-76
2022/06/06 20:13:48;;;;;;;13.77;3.95;;;;;;;13.17;100.00;101430.56;10507691;28;20377;-76
2022/06/06 20:18:50;;;;;;;5.30;3.80;;;;;;;13.14;100.00;101430.13;10498210;28;20040;-74
2022/06/06 20:23:51;;;;;;;8.15;5.60;;;;;;;13.09;100.00;101432.63;10483351;28;20122;-75
2022/06/06 20:28:56;;;;;;;11.13;4.63;;;;;;;13.13;100.00;101433.91;10483107;28;20079;-75
2022/06/06 20:34:01;;;;;;;6.88;4.97;;;;;;;13.20;100.00;101434.78;10499716;28;20064;-75
2022/06/06 20:39:06;;;;;;;5.55;4.20;;;;;;;13.22;100.00;101430.81;10501178;28;20477;-74
2022/06/06 20:44:14;;;;;;;7.35;5.03;;;;;;;13.22;100.00;101424.53;10503005;28;20091;-75
2022/06/06 20:49:17;;;;;;;12.32;5.65;;;;;;;13.19;100.00;101427.66;10485231;28;20028;-75
2022/06/06 20:54:46;;;;;;;10.05;4.50;;;;;;;13.17;100.00;101416.13;10497880;28;20371;-74
2022/06/06 20:59:47;;;;;;;6.07;4.45;;;;;;;13.08;100.00;101418.22;10482313;28;20186;-75
2022/06/06 21:04:47;;;;;;;8.63;5.28;;;;;;;13.03;100.00;101413.34;10500915;28;20551;-75
2022/06/06 21:09:48;;;;;;;10.90;4.25;;;;;;;12.99;100.00;101413.97;10500519;28;20042;-75
2022/06/06 21:14:49;;;;;;;8.60;4.28;;;;;;;13.00;100.00;101413.75;10466320;28;20040;-75
2022/06/06 21:19:49;;;;;;;4.13;3.70;;;;;;;13.05;100.00;101405.03;10480281;28;20036;-75
2022/06/06 21:24:51;;;;;;;10.90;4.18;;;;;;;13.12;100.00;101410.50;10499426;28;20429;-75
2022/06/06 21:29:52;;;;;;;10.20;3.38;;;;;;;13.12;100.00;101396.88;10464971;28;20456;-75
2022/06/06 21:34:52;;;;;;;4.07;3.55;;;;;;;13.14;100.00;101392.91;10480790;28;20033;-76
2022/06/06 21:39:53;;;;;;;5.68;4.22;;;;;;;13.18;100.00;101394.19;10498723;28;20040;-75
2022/06/06 21:44:53;;;;;;;5.65;5.03;;;;;;;13.22;100.00;101394.63;10467274;28;20024;-76
2022/06/06 21:49:54;;;;;;;5.53;4.70;;;;;;;13.24;100.00;101395.25;10497857;28;20115;-76
2022/06/06 21:54:54;;;;;;;3.78;3.47;;;;;;;13.27;100.00;101384.00;10496994;28;20393;-75
2022/06/06 21:59:54;;;;;;;19.85;5.05;;;;;;;13.19;100.00;101385.00;10499190;28;20036;-75
2022/06/06 22:04:55;;;;;;;4.72;4.32;;;;;;;13.20;100.00;101380.38;10498427;28;20061;-75
2022/06/06 22:09:55;;;;;;;5.60;4.75;;;;;;;13.11;100.00;101382.44;10496302;28;20036;-75
2022/06/06 22:14:56;;;;;;;4.50;4.18;;;;;;;13.10;100.00;101369.88;10500358;28;20071;-75
2022/06/06 22:19:56;;;;;;;5.15;4.47;;;;;;;13.08;100.00;101374.72;10479989;28;20037;-76
2022/06/06 22:24:58;;;;;;;4.57;4.25;;;;;;;13.19;100.00;101376.00;10496301;28;20094;-75
2022/06/06 22:29:59;;;;;;;4.10;3.80;;;;;;;13.26;100.00;101369.56;10496635;28;20465;-75
2022/06/06 22:35:00;;;;;;;5.28;3.58;;;;;;;13.36;100.00;101363.72;10479296;28;20043;-75
2022/06/06 22:40:00;;;;;;;4.65;4.18;;;;;;;13.44;100.00;101370.88;10497203;28;20040;-75
2022/06/06 22:45:00;;;;;;;16.13;4.13;;;;;;;13.45;100.00;101359.78;10478733;28;20120;-75
2022/06/06 22:50:01;;;;;;;4.93;4.40;;;;;;;13.54;100.00;101357.72;10495913;28;20042;-75
2022/06/06 22:55:02;;;;;;;3.60;3.20;;;;;;;13.57;100.00;101348.31;10496941;28;20389;-75
2022/06/06 23:00:04;;;;;;;4.60;4.20;;;;;;;13.57;100.00;101340.16;10497087;28;20094;-75
2022/06/06 23:05:05;;;;;;;3.55;3.30;;;;;;;13.51;100.00;101355.41;10496895;28;20060;-75
2022/06/06 23:10:06;;;;;;;3.38;2.97;;;;;;;13.53;100.00;101341.59;10496051;28;20031;-75
2022/06/06 23:15:07;;;;;;;3.33;3.03;;;;;;;13.52;100.00;101338.03;10499039;28;20057;-75
2022/06/06 23:20:08;;;;;;;3.20;2.90;;;;;;;13.53;100.00;101334.28;10487255;28;20036;-77
2022/06/06 23:25:09;;;;;;;3.20;2.80;;;;;;;13.57;100.00;101326.53;10485866;28;20041;-75
2022/06/06 23:30:10;;;;;;;5.05;2.90;;;;;;;13.52;100.00;101324.44;10487516;28;20033;-75
2022/06/06 23:35:11;;;;;;;3.47;3.17;;;;;;;13.53;100.00;101326.13;10503128;28;20491;-75
2022/06/06 23:40:13;;;;;;;5.30;3.55;;;;;;;13.45;100.00;101318.97;10504463;28;20029;-75
2022/06/06 23:50:33;;;;;;;8.43;4.38;;;;;;;13.27;100.00;101313.28;10487796;28;20032;-76
2022/06/06 23:55:34;;;;;;;5.25;4.75;;;;;;;13.25;100.00;101316.22;10502828;28;20032;-75
